Time,TemperatureF,DewpointF,PressureIn,WindDirection,WindDirectionDegrees,WindSpeedMPH,WindSpeedGustMPH,Humidity,HourlyPrecipIn,Conditions,Clouds,dailyrainin,SoftwareType,DateUTC
2013-01-09 00:00:00,26.3,24.6,30.42,WSW,238,0.0,0.0,93,0.00,,,0.00,VWS V12.07,2013-01-09 05:00:00,
2013-01-09 00:10:00,26.3,24.6,30.42,WSW,238,0.0,0.0,93,0.00,,,0.00,VWS V12.07,2013-01-09 05:10:00,
2013-01-09 00:20:00,26.4,24.6,30.40,WSW,238,0.0,0.0,93,0.00,,,0.00,VWS V12.07,2013-01-09 05:20:00,
2013-01-09 00:30:00,26.4,24.6,30.39,WSW,238,0.0,0.0,93,0.00,,,0.00,VWS V12.07,2013-01-09 05:30:00,
2013-01-09 00:40:00,26.4,24.6,30.39,WSW,238,0.0,0.0,93,0.00,,,0.00,VWS V12.07,2013-01-09 05:40:00,
2013-01-09 00:50:00,26.4,24.6,30.39,WSW,238,0.0,0.0,93,0.00,,,0.00,VWS V12.07,2013-01-09 05:50:00,
2013-01-09 01:00:00,26.7,25.0,30.40,WSW,238,0.0,0.0,93,0.00,,,0.00,VWS V12.07,2013-01-09 06:00:00,
2013-01-09 01:10:00,27.0,25.2,30.40,WSW,238,0.0,0.0,93,0.00,,,0.00,VWS V12.07,2013-01-09 06:10:00,
2013-01-09 01:20:00,27.6,25.8,30.39,WSW,238,0.0,0.0,93,0.00,,,0.00,VWS V12.07,2013-01-09 06:20:00,
2013-01-09 01:30:00,27.9,26.1,30.39,WSW,238,0.0,0.0,93,0.00,,,0.00,VWS V12.07,2013-01-09 06:30:00,
2013-01-09 01:40:00,28.4,26.9,30.39,WSW,238,0.0,0.0,94,0.00,,,0.00,VWS V12.07,2013-01-09 06:40:00,
2013-01-09 01:50:00,28.8,27.3,30.39,WSW,238,0.0,0.0,94,0.00,,,0.00,VWS V12.07,2013-01-09 06:50:00,
2013-01-09 02:00:00,29.4,27.9,30.39,WSW,238,0.0,0.0,94,0.00,,,0.00,VWS V12.07,2013-01-09 07:00:00,
2013-01-09 02:10:00,29.5,28.0,30.39,WSW,238,0.0,0.0,94,0.00,,,0.00,VWS V12.07,2013-01-09 07:10:00,
2013-01-09 02:20:00,29.8,28.3,30.38,WSW,238,0.0,0.0,94,0.00,,,0.00,VWS V12.07,2013-01-09 07:20:00,
2013-01-09 02:30:00,30.3,28.8,30.38,WSW,238,0.0,0.0,94,0.00,,,0.00,VWS V12.07,2013-01-09 07:30:00,
2013-01-09 02:40:00,30.4,28.9,30.38,WSW,238,0.0,0.0,94,0.00,,,0.00,VWS V12.07,2013-01-09 07:40:00,
2013-01-09 02:50:00,30.7,29.2,30.38,WSW,238,0.0,0.0,94,0.00,,,0.00,VWS V12.07,2013-01-09 07:50:00,
2013-01-09 03:00:00,30.9,29.4,30.38,WSW,238,0.0,0.0,94,0.00,,,0.00,VWS V12.07,2013-01-09 08:00:00,
2013-01-09 03:10:00,30.9,29.4,30.38,WSW,238,0.0,0.0,94,0.00,,,0.00,VWS V12.07,2013-01-09 08:10:00,
2013-01-09 03:20:00,30.9,29.4,30.38,WSW,238,0.0,0.0,94,0.00,,,0.00,VWS V12.07,2013-01-09 08:20:00,
2013-01-09 03:30:00,30.7,29.2,30.38,WSW,238,0.0,0.0,94,0.00,,,0.00,VWS V12.07,2013-01-09 08:30:00,
2013-01-09 03:40:00,30.6,29.1,30.38,WSW,238,0.0,0.0,94,0.00,,,0.00,VWS V12.07,2013-01-09 08:40:00,
2013-01-09 03:50:00,30.6,29.1,30.37,WSW,238,0.0,0.0,94,0.00,,,0.00,VWS V12.07,2013-01-09 08:50:00,
2013-01-09 04:00:00,30.3,28.8,30.38,WSW,238,0.0,0.0,94,0.00,,,0.00,VWS V12.07,2013-01-09 09:00:00,
2013-01-09 04:10:00,30.4,28.9,30.38,WSW,238,0.0,0.0,94,0.00,,,0.00,VWS V12.07,2013-01-09 09:10:00,
2013-01-09 04:20:00,30.4,28.9,30.39,WSW,238,0.0,0.0,94,0.00,,,0.00,VWS V12.07,2013-01-09 09:20:00,
2013-01-09 04:30:00,30.4,28.9,30.39,WSW,238,0.0,0.0,94,0.00,,,0.00,VWS V12.07,2013-01-09 09:30:00,
2013-01-09 04:40:00,30.4,28.9,30.39,WSW,238,0.0,0.0,94,0.00,,,0.00,VWS V12.07,2013-01-09 09:40:00,
2013-01-09 04:50:00,30.1,28.6,30.39,WSW,238,0.0,0.0,94,0.00,,,0.00,VWS V12.07,2013-01-09 09:50:00,
2013-01-09 05:00:00,29.8,28.3,30.39,WSW,238,0.0,0.0,94,0.00,,,0.00,VWS V12.07,2013-01-09 10:00:00,
2013-01-09 05:10:00,30.0,28.5,30.39,WSW,238,0.0,0.0,94,0.00,,,0.00,VWS V12.07,2013-01-09 10:10:00,
2013-01-09 05:20:00,29.8,28.3,30.42,WSW,238,0.0,0.0,94,0.00,,,0.00,VWS V12.07,2013-01-09 10:20:00,
2013-01-09 05:30:00,29.7,28.2,30.41,WSW,238,0.0,0.0,94,0.00,,,0.00,VWS V12.07,2013-01-09 10:30:00,
2013-01-09 05:40:00,29.7,28.2,30.41,WSW,238,0.0,0.0,94,0.00,,,0.00,VWS V12.07,2013-01-09 10:40:00,
2013-01-09 05:50:00,29.4,27.9,30.41,WSW,238,0.0,0.0,94,0.00,,,0.00,VWS V12.07,2013-01-09 10:50:00,
2013-01-09 06:00:00,29.4,28.1,30.41,WSW,238,0.0,0.0,95,0.00,,,0.00,VWS V12.07,2013-01-09 11:00:00,
2013-01-09 06:10:00,29.1,27.9,30.41,WSW,238,0.0,0.0,95,0.00,,,0.00,VWS V12.07,2013-01-09 11:10:00,
2013-01-09 06:20:00,29.1,27.9,30.44,WSW,238,0.0,0.0,95,0.00,,,0.00,VWS V12.07,2013-01-09 11:20:00,
2013-01-09 06:30:00,29.0,27.8,30.45,WSW,238,0.0,0.0,95,0.00,,,0.00,VWS V12.07,2013-01-09 11:30:00,
2013-01-09 06:40:00,28.8,27.5,30.45,WSW,238,0.0,0.0,95,0.00,,,0.00,VWS V12.07,2013-01-09 11:40:00,
2013-01-09 06:50:00,28.8,27.5,30.45,WSW,238,0.0,0.0,95,0.00,,,0.00,VWS V12.07,2013-01-09 11:50:00,
2013-01-09 07:00:00,28.8,27.5,30.47,WSW,238,0.0,0.0,95,0.00,,,0.00,VWS V12.07,2013-01-09 12:00:00,
2013-01-09 07:10:00,29.0,27.8,30.47,WSW,238,0.0,0.0,95,0.00,,,0.00,VWS V12.07,2013-01-09 12:10:00,
2013-01-09 07:20:00,29.0,27.8,30.48,WSW,238,0.0,0.0,95,0.00,,,0.00,VWS V12.07,2013-01-09 12:20:00,
2013-01-09 07:30:00,28.8,27.5,30.48,WSW,238,0.0,0.0,95,0.00,,,0.00,VWS V12.07,2013-01-09 12:30:00,
2013-01-09 07:40:00,28.7,27.5,30.48,WSW,238,0.0,0.0,95,0.00,,,0.00,VWS V12.07,2013-01-09 12:40:00,
2013-01-09 07:50:00,28.7,27.5,30.49,WSW,238,0.0,0.0,95,0.00,,,0.00,VWS V12.07,2013-01-09 12:50:00,
2013-01-09 08:00:00,28.5,27.2,30.50,WSW,238,0.0,0.0,95,0.00,,,0.00,VWS V12.07,2013-01-09 13:00:00,
2013-01-09 08:10:00,28.7,27.5,30.50,WSW,238,0.0,0.0,95,0.00,,,0.00,VWS V12.07,2013-01-09 13:10:00,
2013-01-09 08:20:00,29.3,28.3,30.50,WSW,238,0.0,2.0,96,0.00,,,0.00,VWS V12.07,2013-01-09 13:20:00,
2013-01-09 08:30:00,30.7,29.7,30.51,WSW,238,2.0,2.0,96,0.00,,,0.00,VWS V12.07,2013-01-09 13:30:00,
2013-01-09 08:40:00,31.6,30.6,30.51,WSW,238,0.0,3.0,96,0.00,,,0.00,VWS V12.07,2013-01-09 13:40:00,
2013-01-09 08:50:00,32.5,31.5,30.50,WSW,238,0.0,0.0,96,0.00,,,0.00,VWS V12.07,2013-01-09 13:50:00,
2013-01-09 09:00:00,34.6,33.8,30.50,WSW,238,0.0,0.0,97,0.00,,,0.00,VWS V12.07,2013-01-09 14:00:00,
2013-01-09 09:10:00,36.3,35.5,30.50,WSW,238,0.0,1.0,97,0.00,,,0.00,VWS V12.07,2013-01-09 14:10:00,
2013-01-09 09:20:00,38.8,38.0,30.49,WSW,238,0.0,1.0,97,0.00,,,0.00,VWS V12.07,2013-01-09 14:20:00,
2013-01-09 09:30:00,40.3,39.0,30.48,WSW,238,0.0,1.0,95,0.00,,,0.00,VWS V12.07,2013-01-09 14:30:00,
2013-01-09 09:40:00,43.1,41.5,30.48,WSW,238,0.0,0.0,94,0.00,,,0.00,VWS V12.07,2013-01-09 14:40:00,
2013-01-09 09:50:00,46.7,43.9,30.46,WSW,238,1.0,2.0,90,0.00,,,0.00,VWS V12.07,2013-01-09 14:50:00,
2013-01-09 10:00:00,49.5,44.9,30.43,WSW,238,1.0,3.0,84,0.00,,,0.00,VWS V12.07,2013-01-09 15:00:00,
2013-01-09 10:10:00,52.0,45.7,30.43,WSW,239,0.0,4.0,79,0.00,,,0.00,VWS V12.07,2013-01-09 15:10:00,
2013-01-09 10:20:00,54.5,44.9,30.42,West,271,4.0,16.0,70,0.00,,,0.00,VWS V12.07,2013-01-09 15:20:00,
2013-01-09 10:30:00,56.2,45.0,30.42,West,267,4.0,16.0,66,0.00,,,0.00,VWS V12.07,2013-01-09 15:30:00,
2013-01-09 10:40:00,56.2,44.6,30.42,WSW,254,13.0,21.0,65,0.00,,,0.00,VWS V12.07,2013-01-09 15:40:00,
2013-01-09 10:50:00,55.9,44.7,30.42,West,259,11.0,16.0,66,0.00,,,0.00,VWS V12.07,2013-01-09 15:50:00,
2013-01-09 11:00:00,55.7,44.5,30.43,West,261,7.0,17.0,66,0.00,,,0.00,VWS V12.07,2013-01-09 16:00:00,
2013-01-09 11:10:00,55.7,44.5,30.43,West,265,6.0,14.0,66,0.00,,,0.00,VWS V12.07,2013-01-09 16:10:00,
2013-01-09 11:20:00,55.7,44.5,30.43,West,264,11.0,14.0,66,0.00,,,0.00,VWS V12.07,2013-01-09 16:20:00,
2013-01-09 11:30:00,55.6,44.4,30.42,West,265,4.0,14.0,66,0.00,,,0.00,VWS V12.07,2013-01-09 16:30:00,
2013-01-09 11:40:00,55.4,44.6,30.42,WSW,253,9.0,12.0,67,0.00,,,0.00,VWS V12.07,2013-01-09 16:40:00,
2013-01-09 11:50:00,55.6,44.8,30.42,WNW,282,5.0,13.0,67,0.00,,,0.00,VWS V12.07,2013-01-09 16:50:00,
2013-01-09 12:00:00,55.7,44.9,30.41,West,261,5.0,8.0,67,0.00,,,0.00,VWS V12.07,2013-01-09 17:00:00,
2013-01-09 12:10:00,55.7,44.9,30.41,West,269,4.0,12.0,67,0.00,,,0.00,VWS V12.07,2013-01-09 17:10:00,
2013-01-09 12:20:00,55.6,45.2,30.41,West,267,2.0,6.0,68,0.00,,,0.00,VWS V12.07,2013-01-09 17:20:00,
2013-01-09 12:30:00,55.4,45.0,30.39,West,267,1.0,4.0,68,0.00,,,0.00,VWS V12.07,2013-01-09 17:30:00,
2013-01-09 12:40:00,55.3,45.7,30.39,WSW,246,2.0,7.0,70,0.00,,,0.00,VWS V12.07,2013-01-09 17:40:00,
2013-01-09 12:50:00,55.1,45.5,30.39,WSW,258,2.0,6.0,70,0.00,,,0.00,VWS V12.07,2013-01-09 17:50:00,
2013-01-09 13:00:00,55.1,46.2,30.39,WSW,258,0.0,5.0,72,0.00,,,0.00,VWS V12.07,2013-01-09 18:00:00,
2013-01-09 13:10:00,55.0,46.5,30.39,WSW,258,0.0,3.0,73,0.00,,,0.00,VWS V12.07,2013-01-09 18:10:00,
2013-01-09 13:20:00,54.5,47.1,30.38,WSW,258,0.0,4.0,76,0.00,,,0.00,VWS V12.07,2013-01-09 18:20:00,
2013-01-09 13:30:00,54.1,47.4,30.39,WSW,258,0.0,0.0,78,0.00,,,0.00,VWS V12.07,2013-01-09 18:30:00,
2013-01-09 13:40:00,53.6,47.3,30.39,WSW,258,0.0,0.0,79,0.00,,,0.00,VWS V12.07,2013-01-09 18:40:00,
2013-01-09 13:50:00,53.3,47.3,30.39,WSW,258,0.0,3.0,80,0.01,,,0.01,VWS V12.07,2013-01-09 18:50:00,
2013-01-09 14:00:00,53.1,47.1,30.39,WSW,258,0.0,2.0,80,0.01,,,0.01,VWS V12.07,2013-01-09 19:00:00,
2013-01-09 14:10:00,53.2,47.5,30.39,WSW,258,0.0,3.0,81,0.01,,,0.01,VWS V12.07,2013-01-09 19:10:00,
2013-01-09 14:20:00,53.3,47.6,30.38,WSW,258,0.0,2.0,81,0.01,,,0.01,VWS V12.07,2013-01-09 19:20:00,
2013-01-09 14:30:00,53.3,47.6,30.38,WSW,258,0.0,2.0,81,0.01,,,0.01,VWS V12.07,2013-01-09 19:30:00,
2013-01-09 14:40:00,54.1,47.7,30.38,West,281,1.0,6.0,79,0.01,,,0.01,VWS V12.07,2013-01-09 19:40:00,
2013-01-09 14:50:00,55.1,47.7,30.37,WSW,241,4.0,9.0,76,0.01,,,0.01,VWS V12.07,2013-01-09 19:50:00,
2013-01-09 15:00:00,55.7,47.9,30.38,West,268,5.0,10.0,75,0.00,,,0.01,VWS V12.07,2013-01-09 20:00:00,
2013-01-09 15:10:00,55.9,47.7,30.38,WSW,248,0.0,9.0,74,0.00,,,0.01,VWS V12.07,2013-01-09 20:10:00,
2013-01-09 15:20:00,55.9,47.7,30.38,WSW,256,3.0,11.0,74,0.00,,,0.01,VWS V12.07,2013-01-09 20:20:00,
2013-01-09 15:30:00,55.9,47.7,30.38,West,260,6.0,10.0,74,0.00,,,0.01,VWS V12.07,2013-01-09 20:30:00,
2013-01-09 15:40:00,56.0,47.8,30.38,NW,311,3.0,10.0,74,0.00,,,0.01,VWS V12.07,2013-01-09 20:40:00,
2013-01-09 15:50:00,56.0,47.5,30.38,WNW,288,6.0,14.0,73,0.00,,,0.01,VWS V12.07,2013-01-09 20:50:00,
2013-01-09 16:00:00,56.2,47.7,30.38,WNW,286,2.0,11.0,73,0.00,,,0.01,VWS V12.07,2013-01-09 21:00:00,
2013-01-09 16:10:00,56.0,47.8,30.38,WNW,292,4.0,7.0,74,0.00,,,0.01,VWS V12.07,2013-01-09 21:10:00,
2013-01-09 16:20:00,55.9,48.1,30.38,WNW,284,5.0,9.0,75,0.00,,,0.01,VWS V12.07,2013-01-09 21:20:00,
2013-01-09 16:30:00,55.7,48.3,30.39,WNW,289,4.0,8.0,76,0.00,,,0.01,VWS V12.07,2013-01-09 21:30:00,
2013-01-09 16:40:00,55.6,48.5,30.39,West,273,3.0,9.0,77,0.00,,,0.01,VWS V12.07,2013-01-09 21:40:00,
2013-01-09 16:50:00,55.3,48.6,30.40,West,274,0.0,9.0,78,0.00,,,0.01,VWS V12.07,2013-01-09 21:50:00,
2013-01-09 17:00:00,55.0,48.6,30.40,West,272,2.0,6.0,79,0.00,,,0.01,VWS V12.07,2013-01-09 22:00:00,
2013-01-09 17:10:00,54.7,48.7,30.40,West,275,1.0,5.0,80,0.00,,,0.01,VWS V12.07,2013-01-09 22:10:00,
2013-01-09 17:20:00,54.5,48.8,30.39,WNW,290,3.0,7.0,81,0.00,,,0.01,VWS V12.07,2013-01-09 22:20:00,
2013-01-09 17:30:00,54.2,48.8,30.39,West,273,0.0,6.0,82,0.00,,,0.01,VWS V12.07,2013-01-09 22:30:00,
2013-01-09 17:40:00,53.8,48.4,30.39,West,273,0.0,3.0,82,0.00,,,0.01,VWS V12.07,2013-01-09 22:40:00,
2013-01-09 17:50:00,52.8,47.8,30.39,West,273,0.0,2.0,83,0.00,,,0.01,VWS V12.07,2013-01-09 22:50:00,
2013-01-09 18:00:00,52.8,48.1,30.39,South,171,1.0,5.0,84,0.00,,,0.01,VWS V12.07,2013-01-09 23:00:00,
2013-01-09 18:10:00,52.6,47.9,30.39,SSE,167,0.0,3.0,84,0.00,,,0.01,VWS V12.07,2013-01-09 23:10:00,
2013-01-09 18:20:00,51.9,47.2,30.39,SSE,167,0.0,0.0,84,0.00,,,0.01,VWS V12.07,2013-01-09 23:20:00,
2013-01-09 18:30:00,50.8,46.8,30.41,South,169,0.0,2.0,86,0.00,,,0.01,VWS V12.07,2013-01-09 23:30:00,
2013-01-09 18:40:00,50.1,46.1,30.41,South,171,0.0,3.0,86,0.00,,,0.01,VWS V12.07,2013-01-09 23:40:00,
2013-01-09 18:50:00,49.4,45.7,30.43,South,171,0.0,0.0,87,0.00,,,0.01,VWS V12.07,2013-01-09 23:50:00,
2013-01-09 19:00:00,49.4,46.3,30.43,South,171,3.0,4.0,89,0.00,,,0.01,VWS V12.07,2013-01-10 00:00:00,
2013-01-09 19:10:00,48.6,45.2,30.43,South,171,0.0,3.0,88,0.00,,,0.01,VWS V12.07,2013-01-10 00:10:00,
2013-01-09 19:20:00,49.1,46.3,30.44,WSW,258,5.0,7.0,90,0.00,,,0.01,VWS V12.07,2013-01-10 00:20:00,
2013-01-09 19:30:00,48.6,45.8,30.44,WSW,258,0.0,5.0,90,0.00,,,0.01,VWS V12.07,2013-01-10 00:30:00,
2013-01-09 19:40:00,47.9,45.1,30.44,West,259,0.0,2.0,90,0.00,,,0.01,VWS V12.07,2013-01-10 00:40:00,
2013-01-09 19:50:00,47.6,44.8,30.44,WSW,258,0.0,0.0,90,0.00,,,0.01,VWS V12.07,2013-01-10 00:50:00,
2013-01-09 20:00:00,47.1,44.3,30.45,WSW,258,0.0,1.0,90,0.00,,,0.01,VWS V12.07,2013-01-10 01:00:00,
2013-01-09 20:10:00,46.8,44.3,30.45,WSW,258,0.0,0.0,91,0.00,,,0.01,VWS V12.07,2013-01-10 01:10:00,
2013-01-09 20:20:00,46.8,44.6,30.43,WSW,258,0.0,0.0,92,0.00,,,0.01,VWS V12.07,2013-01-10 01:20:00,
2013-01-09 20:30:00,46.2,44.0,30.44,WSW,258,0.0,0.0,92,0.00,,,0.01,VWS V12.07,2013-01-10 01:30:00,
2013-01-09 20:40:00,45.8,43.6,30.44,WSW,258,0.0,1.0,92,0.00,,,0.01,VWS V12.07,2013-01-10 01:40:00,
2013-01-09 20:50:00,45.8,43.9,30.44,West,259,0.0,0.0,93,0.00,,,0.01,VWS V12.07,2013-01-10 01:50:00,
2013-01-09 21:00:00,45.7,43.5,30.44,WSW,258,0.0,0.0,92,0.00,,,0.01,VWS V12.07,2013-01-10 02:00:00,
2013-01-09 21:10:00,45.7,43.8,30.44,WSW,258,0.0,1.0,93,0.00,,,0.01,VWS V12.07,2013-01-10 02:10:00,
2013-01-09 21:20:00,45.8,43.9,30.39,WSW,258,0.0,1.0,93,0.00,,,0.01,VWS V12.07,2013-01-10 02:20:00,
2013-01-09 21:30:00,47.6,46.2,30.39,WNW,301,0.0,4.0,95,0.00,,,0.01,VWS V12.07,2013-01-10 02:30:00,
2013-01-09 21:40:00,49.9,48.8,30.39,WNW,291,0.0,5.0,96,0.00,,,0.01,VWS V12.07,2013-01-10 02:40:00,
2013-01-09 21:50:00,49.6,48.0,30.37,North,5,0.0,5.0,94,0.00,,,0.01,VWS V12.07,2013-01-10 02:50:00,
2013-01-09 22:00:00,51.0,49.6,30.38,NW,306,4.0,11.0,95,0.00,,,0.01,VWS V12.07,2013-01-10 03:00:00,
2013-01-09 22:10:00,51.9,49.7,30.38,WNW,293,1.0,7.0,92,0.00,,,0.01,VWS V12.07,2013-01-10 03:10:00,
2013-01-09 22:20:00,51.9,49.1,30.35,North,355,0.0,8.0,90,0.00,,,0.01,VWS V12.07,2013-01-10 03:20:00,
2013-01-09 22:30:00,51.7,48.9,30.35,WNW,284,3.0,10.0,90,0.00,,,0.01,VWS V12.07,2013-01-10 03:30:00,
2013-01-09 22:40:00,51.6,48.8,30.35,WSW,256,0.0,7.0,90,0.00,,,0.01,VWS V12.07,2013-01-10 03:40:00,
2013-01-09 22:50:00,51.4,48.9,30.36,WSW,256,0.0,4.0,91,0.00,,,0.01,VWS V12.07,2013-01-10 03:50:00,
2013-01-09 23:00:00,51.3,48.8,30.36,WSW,256,0.0,3.0,91,0.00,,,0.01,VWS V12.07,2013-01-10 04:00:00,
2013-01-09 23:10:00,51.1,48.6,30.36,West,259,3.0,3.0,91,0.00,,,0.01,VWS V12.07,2013-01-10 04:10:00,
2013-01-09 23:20:00,50.8,48.0,30.37,West,259,0.0,3.0,90,0.00,,,0.01,VWS V12.07,2013-01-10 04:20:00,
2013-01-09 23:30:00,50.1,47.3,30.37,West,259,2.0,3.0,90,0.00,,,0.01,VWS V12.07,2013-01-10 04:30:00,
2013-01-09 23:40:00,50.1,47.9,30.37,West,259,0.0,2.0,92,0.00,,,0.01,VWS V12.07,2013-01-10 04:40:00,
2013-01-09 23:50:00,49.2,46.7,30.37,West,259,0.0,1.0,91,0.00,,,0.01,VWS V12.07,2013-01-10 04:50:00,